createdAt,value
2023-05-13T00:00:26.782Z,1019.63
2023-05-13T00:01:26.649Z,1019.69
2023-05-13T00:02:26.885Z,1019.74
2023-05-13T00:03:26.809Z,1019.72
2023-05-13T00:04:26.906Z,1019.73
2023-05-13T00:05:26.557Z,1019.75
2023-05-13T00:06:26.619Z,1019.70
2023-05-13T00:07:26.551Z,1019.75
2023-05-13T00:08:26.589Z,1019.74
2023-05-13T00:09:26.588Z,1019.66
2023-05-13T00:10:26.556Z,1019.68
2023-05-13T00:11:26.590Z,1019.67
2023-05-13T00:12:26.773Z,1019.62
2023-05-13T00:13:26.437Z,1019.61
2023-05-13T00:14:26.675Z,1019.64
2023-05-13T00:15:26.449Z,1019.63
2023-05-13T00:16:26.508Z,1019.61
2023-05-13T00:17:26.490Z,1019.59
2023-05-13T00:18:26.446Z,1019.61
2023-05-13T00:19:26.437Z,1019.67
2023-05-13T00:20:26.392Z,1019.64
2023-05-13T00:21:26.378Z,1019.60
2023-05-13T00:22:26.342Z,1019.66
2023-05-13T00:23:26.365Z,1019.62
2023-05-13T00:24:27.442Z,1019.64
2023-05-13T00:25:27.760Z,1019.65
2023-05-13T00:26:26.532Z,1019.65
2023-05-13T00:27:26.290Z,1019.71
2023-05-13T00:28:26.947Z,1019.69
2023-05-13T00:29:26.217Z,1019.65
2023-05-13T00:30:26.243Z,1019.68
2023-05-13T00:31:26.322Z,1019.68
2023-05-13T00:32:26.290Z,1019.68
2023-05-13T00:33:26.199Z,1019.67
2023-05-13T00:34:26.336Z,1019.67
2023-05-13T00:35:26.188Z,1019.71
2023-05-13T00:36:26.144Z,1019.72
2023-05-13T00:37:26.351Z,1019.69
2023-05-13T00:38:26.075Z,1019.72
2023-05-13T00:39:26.867Z,1019.74
2023-05-13T00:40:26.076Z,1019.67
2023-05-13T00:41:26.154Z,1019.69
2023-05-13T00:42:26.125Z,1019.68
2023-05-13T00:43:26.172Z,1019.66
2023-05-13T00:44:26.321Z,1019.65
2023-05-13T00:45:26.080Z,1019.66
2023-05-13T00:46:26.115Z,1019.65
2023-05-13T00:47:25.988Z,1019.69
2023-05-13T00:48:26.083Z,1019.70
2023-05-13T00:49:25.940Z,1019.68
2023-05-13T00:50:26.105Z,1019.67
2023-05-13T00:51:25.877Z,1019.67
2023-05-13T00:52:25.929Z,1019.69
2023-05-13T00:53:25.930Z,1019.68
2023-05-13T00:54:26.071Z,1019.69
2023-05-13T00:55:25.873Z,1019.67
2023-05-13T00:56:25.839Z,1019.72
2023-05-13T00:57:25.830Z,1019.72
2023-05-13T00:58:25.834Z,1019.74
2023-05-13T00:59:25.857Z,1019.73
2023-05-13T01:00:25.912Z,1019.72
2023-05-13T01:01:26.537Z,1019.72
2023-05-13T01:02:25.866Z,1019.70
2023-05-13T01:03:25.795Z,1019.70
2023-05-13T01:04:25.756Z,1019.73
2023-05-13T01:05:25.770Z,1019.75
2023-05-13T01:06:25.717Z,1019.76
2023-05-13T01:07:25.678Z,1019.75
2023-05-13T01:08:25.649Z,1019.74
2023-05-13T01:09:25.681Z,1019.72
2023-05-13T01:10:25.955Z,1019.76
2023-05-13T01:11:25.733Z,1019.71
2023-05-13T01:12:25.573Z,1019.78
2023-05-13T01:13:25.608Z,1019.75
2023-05-13T01:14:25.577Z,1019.74
2023-05-13T01:15:25.576Z,1019.79
2023-05-13T01:16:25.640Z,1019.80
2023-05-13T01:17:25.539Z,1019.86
2023-05-13T01:18:25.530Z,1019.84
2023-05-13T01:19:25.481Z,1019.87
2023-05-13T01:20:25.471Z,1019.84
2023-05-13T01:21:25.431Z,1019.85
2023-05-13T01:22:25.427Z,1019.86
2023-05-13T01:23:26.102Z,1019.86
2023-05-13T01:24:25.440Z,1019.83
2023-05-13T01:25:25.421Z,1019.89
2023-05-13T01:26:25.450Z,1019.88
2023-05-13T01:27:25.435Z,1019.92
2023-05-13T01:28:25.446Z,1019.93
2023-05-13T01:29:25.340Z,1019.93
2023-05-13T01:30:25.423Z,1020.00
2023-05-13T01:31:25.476Z,1020.01
2023-05-13T01:32:25.396Z,1019.99
2023-05-13T01:33:26.355Z,1020.00
2023-05-13T01:34:25.266Z,1020.02
2023-05-13T01:35:25.386Z,1019.99
2023-05-13T01:36:25.401Z,1020.04
2023-05-13T01:37:25.299Z,1020.08
2023-05-13T01:38:25.224Z,1020.07
2023-05-13T01:39:25.271Z,1020.06
2023-05-13T01:41:26.183Z,1020.14
2023-05-13T01:42:25.175Z,1020.09
2023-05-13T01:43:25.165Z,1020.15
2023-05-13T01:44:25.169Z,1020.17
2023-05-13T01:45:25.167Z,1020.17
2023-05-13T01:46:25.145Z,1020.16
2023-05-13T01:47:25.159Z,1020.16
2023-05-13T01:48:25.093Z,1020.21
2023-05-13T01:49:25.136Z,1020.18
2023-05-13T01:50:25.067Z,1020.21
2023-05-13T01:51:25.077Z,1020.23
2023-05-13T01:52:25.109Z,1020.27
2023-05-13T01:53:25.051Z,1020.26
2023-05-13T01:54:24.997Z,1020.36
2023-05-13T01:55:25.006Z,1020.36
2023-05-13T01:56:24.998Z,1020.37
2023-05-13T01:57:25.840Z,1020.41
2023-05-13T01:58:25.946Z,1020.33
2023-05-13T01:59:25.049Z,1020.38
2023-05-13T02:00:24.929Z,1020.40
2023-05-13T02:01:25.252Z,1020.40
2023-05-13T02:02:24.945Z,1020.39
2023-05-13T02:03:25.006Z,1020.37
2023-05-13T02:04:24.879Z,1020.35
2023-05-13T02:05:24.953Z,1020.33
2023-05-13T02:06:24.871Z,1020.40
2023-05-13T02:07:24.874Z,1020.42
2023-05-13T02:08:24.995Z,1020.39
2023-05-13T02:09:24.812Z,1020.48
2023-05-13T02:10:24.791Z,1020.47
2023-05-13T02:11:24.789Z,1020.52
2023-05-13T02:12:24.794Z,1020.48
2023-05-13T02:13:24.748Z,1020.48
2023-05-13T02:14:24.714Z,1020.44
2023-05-13T02:15:24.838Z,1020.43
2023-05-13T02:16:24.754Z,1020.40
2023-05-13T02:17:24.761Z,1020.39
2023-05-13T02:18:24.709Z,1020.39
2023-05-13T02:19:24.654Z,1020.39
2023-05-13T02:20:24.634Z,1020.42
2023-05-13T02:21:24.657Z,1020.44
2023-05-13T02:22:24.657Z,1020.43
2023-05-13T02:23:24.635Z,1020.49
2023-05-13T02:24:24.595Z,1020.44
2023-05-13T02:25:24.569Z,1020.52
2023-05-13T02:26:24.600Z,1020.49
2023-05-13T02:27:24.577Z,1020.52
2023-05-13T02:28:24.542Z,1020.51
2023-05-13T02:29:24.872Z,1020.49
2023-05-13T02:30:24.551Z,1020.52
2023-05-13T02:31:24.527Z,1020.54
2023-05-13T02:32:24.509Z,1020.53
2023-05-13T02:33:24.516Z,1020.52
2023-05-13T02:34:24.542Z,1020.54
2023-05-13T02:35:24.444Z,1020.57
2023-05-13T02:36:24.472Z,1020.61
2023-05-13T02:37:24.457Z,1020.56
2023-05-13T02:38:24.394Z,1020.50
2023-05-13T02:39:24.428Z,1020.49
2023-05-13T02:40:24.380Z,1020.45
2023-05-13T02:41:24.429Z,1020.50
2023-05-13T02:42:24.370Z,1020.48
2023-05-13T02:43:24.329Z,1020.49
2023-05-13T02:44:24.337Z,1020.55
2023-05-13T02:45:24.317Z,1020.57
2023-05-13T02:46:24.475Z,1020.54
2023-05-13T02:47:24.344Z,1020.49
2023-05-13T02:48:24.312Z,1020.51
2023-05-13T02:49:24.266Z,1020.47
2023-05-13T02:50:24.428Z,1020.49
2023-05-13T02:51:24.244Z,1020.47
2023-05-13T02:52:25.162Z,1020.46
2023-05-13T02:53:24.260Z,1020.43
2023-05-13T02:54:24.253Z,1020.43
2023-05-13T02:55:24.303Z,1020.49
2023-05-13T02:56:24.217Z,1020.46
2023-05-13T02:57:24.180Z,1020.42
2023-05-13T02:58:24.199Z,1020.41
2023-05-13T02:59:25.004Z,1020.40
2023-05-13T03:00:24.249Z,1020.46
2023-05-13T03:01:24.100Z,1020.48
2023-05-13T03:02:24.145Z,1020.43
2023-05-13T03:03:24.194Z,1020.45
2023-05-13T03:04:24.119Z,1020.46
2023-05-13T03:05:24.118Z,1020.47
2023-05-13T03:06:24.024Z,1020.48
2023-05-13T03:07:24.005Z,1020.52
2023-05-13T03:08:24.019Z,1020.52
2023-05-13T03:09:24.040Z,1020.57
2023-05-13T03:10:23.962Z,1020.59
2023-05-13T03:11:24.019Z,1020.55
2023-05-13T03:12:23.968Z,1020.55
2023-05-13T03:13:23.948Z,1020.53
2023-05-13T03:14:23.909Z,1020.53
2023-05-13T03:15:23.975Z,1020.49
2023-05-13T03:16:23.910Z,1020.48
2023-05-13T03:17:23.919Z,1020.53
2023-05-13T03:18:23.937Z,1020.59
2023-05-13T03:19:23.870Z,1020.55
2023-05-13T03:20:24.023Z,1020.57
2023-05-13T03:21:23.894Z,1020.58
2023-05-13T03:22:23.852Z,1020.57
2023-05-13T03:23:23.831Z,1020.56
2023-05-13T03:24:23.779Z,1020.60
2023-05-13T03:25:23.785Z,1020.61
2023-05-13T03:26:23.795Z,1020.64
2023-05-13T03:27:23.789Z,1020.71
2023-05-13T03:28:23.728Z,1020.71
2023-05-13T03:29:24.687Z,1020.77
2023-05-13T03:30:23.801Z,1020.73
2023-05-13T03:31:23.743Z,1020.73
2023-05-13T03:32:23.725Z,1020.76
2023-05-13T03:33:23.680Z,1020.75
2023-05-13T03:34:24.439Z,1020.72
2023-05-13T03:35:23.617Z,1020.77
2023-05-13T03:36:23.621Z,1020.81
2023-05-13T03:37:23.606Z,1020.83
2023-05-13T03:38:23.626Z,1020.84
2023-05-13T03:39:23.701Z,1020.83
2023-05-13T03:40:23.716Z,1020.81
2023-05-13T03:41:23.555Z,1020.85
2023-05-13T03:42:23.521Z,1020.79
2023-05-13T03:43:23.518Z,1020.79
2023-05-13T03:44:23.517Z,1020.85
2023-05-13T03:45:23.530Z,1020.83
2023-05-13T03:46:23.574Z,1020.84
2023-05-13T03:47:23.591Z,1020.77
2023-05-13T03:48:23.439Z,1020.77
2023-05-13T03:49:23.433Z,1020.81
2023-05-13T03:50:23.754Z,1020.81
2023-05-13T03:51:23.537Z,1020.86
2023-05-13T03:52:23.375Z,1020.85
2023-05-13T03:53:23.393Z,1020.87
2023-05-13T03:54:23.369Z,1020.90
2023-05-13T03:55:23.349Z,1020.96
2023-05-13T03:56:23.408Z,1021.02
2023-05-13T03:57:23.344Z,1021.06
2023-05-13T03:58:23.413Z,1021.06
2023-05-13T03:59:23.297Z,1021.10
2023-05-13T04:00:23.482Z,1021.09
2023-05-13T04:01:23.266Z,1021.08
2023-05-13T04:02:23.280Z,1021.07
2023-05-13T04:03:23.362Z,1021.08
2023-05-13T04:04:23.266Z,1021.10
2023-05-13T04:05:23.235Z,1021.06
2023-05-13T04:06:23.264Z,1021.11
2023-05-13T04:07:23.268Z,1021.08
2023-05-13T04:08:23.154Z,1021.10
2023-05-13T04:09:23.155Z,1021.04
2023-05-13T04:10:23.310Z,1021.11
2023-05-13T04:11:23.155Z,1021.12
2023-05-13T04:12:23.146Z,1021.15
2023-05-13T04:13:23.122Z,1021.20
2023-05-13T04:14:23.116Z,1021.21
2023-05-13T04:15:24.212Z,1021.20
2023-05-13T04:16:23.132Z,1021.23
2023-05-13T04:17:23.135Z,1021.20
2023-05-13T04:18:23.087Z,1021.25
2023-05-13T04:19:23.048Z,1021.27
2023-05-13T04:20:23.242Z,1021.26
2023-05-13T04:21:23.049Z,1021.29
2023-05-13T04:22:23.062Z,1021.33
2023-05-13T04:23:22.999Z,1021.31
2023-05-13T04:24:22.977Z,1021.31
2023-05-13T04:25:22.955Z,1021.31
2023-05-13T04:26:23.089Z,1021.29
2023-05-13T04:27:22.942Z,1021.39
2023-05-13T04:28:22.974Z,1021.41
2023-05-13T04:29:23.189Z,1021.40
2023-05-13T04:30:23.162Z,1021.40
2023-05-13T04:31:23.011Z,1021.42
2023-05-13T04:32:22.929Z,1021.42
2023-05-13T04:33:22.923Z,1021.40
2023-05-13T04:34:22.849Z,1021.47
2023-05-13T04:35:22.832Z,1021.54
2023-05-13T04:36:22.786Z,1021.57
2023-05-13T04:37:22.798Z,1021.61
2023-05-13T04:38:22.826Z,1021.63
2023-05-13T04:39:22.786Z,1021.62
2023-05-13T04:40:22.983Z,1021.62
2023-05-13T04:41:22.790Z,1021.59
2023-05-13T04:42:22.772Z,1021.60
2023-05-13T04:43:22.764Z,1021.63
2023-05-13T04:44:22.842Z,1021.58
2023-05-13T04:45:22.674Z,1021.56
2023-05-13T04:46:22.730Z,1021.56
2023-05-13T04:47:22.722Z,1021.53
2023-05-13T04:48:22.697Z,1021.55
2023-05-13T04:49:22.608Z,1021.52
2023-05-13T04:50:22.886Z,1021.55
2023-05-13T04:51:22.584Z,1021.53
2023-05-13T04:52:22.569Z,1021.57
2023-05-13T04:53:22.644Z,1021.56
2023-05-13T04:54:22.634Z,1021.56
2023-05-13T04:55:22.875Z,1021.54
2023-05-13T04:56:22.576Z,1021.49
2023-05-13T04:57:22.629Z,1021.50
2023-05-13T04:58:22.548Z,1021.49
2023-05-13T04:59:22.619Z,1021.46
2023-05-13T05:00:22.902Z,1021.43
2023-05-13T05:01:23.278Z,1021.41
2023-05-13T05:02:22.588Z,1021.34
2023-05-13T05:03:22.620Z,1021.28
2023-05-13T05:04:22.539Z,1021.28
2023-05-13T05:05:22.489Z,1021.24
2023-05-13T05:06:22.390Z,1021.19
2023-05-13T05:07:22.407Z,1021.20
2023-05-13T05:08:22.415Z,1021.18
2023-05-13T05:09:22.382Z,1021.12
2023-05-13T05:10:22.522Z,1021.12
2023-05-13T05:11:22.337Z,1021.06
2023-05-13T05:12:22.606Z,1021.01
2023-05-13T05:13:22.365Z,1020.98
2023-05-13T05:14:22.404Z,1020.92
2023-05-13T05:15:22.541Z,1020.87
2023-05-13T05:16:22.273Z,1020.90
2023-05-13T05:17:22.388Z,1020.83
2023-05-13T05:18:23.179Z,1020.81
2023-05-13T05:19:22.266Z,1020.84
2023-05-13T05:20:22.438Z,1020.82
2023-05-13T05:21:22.231Z,1020.80
2023-05-13T05:22:22.203Z,1020.82
2023-05-13T05:23:22.272Z,1020.82
2023-05-13T05:24:22.450Z,1020.83
2023-05-13T05:25:22.130Z,1020.83
2023-05-13T05:26:22.136Z,1020.86
2023-05-13T05:27:22.133Z,1020.87
2023-05-13T05:28:22.062Z,1020.82
2023-05-13T05:29:22.938Z,1020.84
2023-05-13T05:30:22.536Z,1020.82
2023-05-13T05:31:22.059Z,1020.81
2023-05-13T05:32:22.060Z,1020.82
2023-05-13T05:33:22.099Z,1020.78
2023-05-13T05:34:22.038Z,1020.76
2023-05-13T05:35:22.000Z,1020.74
2023-05-13T05:36:22.107Z,1020.77
2023-05-13T05:37:22.343Z,1020.69
2023-05-13T05:38:22.257Z,1020.68
2023-05-13T05:39:22.156Z,1020.72
2023-05-13T05:40:22.133Z,1020.70
2023-05-13T05:41:22.090Z,1020.66
2023-05-13T05:42:21.935Z,1020.65
2023-05-13T05:43:21.940Z,1020.70
2023-05-13T05:44:21.977Z,1020.65
2023-05-13T05:45:21.893Z,1020.62
2023-05-13T05:46:21.897Z,1020.60
2023-05-13T05:47:21.993Z,1020.62
2023-05-13T05:48:21.825Z,1020.62
2023-05-13T05:49:21.797Z,1020.61
2023-05-13T05:50:22.013Z,1020.61
2023-05-13T05:51:21.793Z,1020.61
2023-05-13T05:52:21.712Z,1020.61
2023-05-13T05:53:21.743Z,1020.57
2023-05-13T05:54:21.759Z,1020.60
2023-05-13T05:55:21.696Z,1020.58
2023-05-13T05:56:21.760Z,1020.58
2023-05-13T05:57:21.769Z,1020.55
2023-05-13T05:58:21.767Z,1020.59
2023-05-13T05:59:21.705Z,1020.59
2023-05-13T06:00:22.049Z,1020.62
2023-05-13T06:01:21.665Z,1020.61
2023-05-13T06:02:25.791Z,1020.64
2023-05-13T06:03:21.871Z,1020.62
2023-05-13T06:04:21.664Z,1020.63
2023-05-13T06:05:21.592Z,1020.63
2023-05-13T06:06:21.779Z,1020.64
2023-05-13T06:07:21.592Z,1020.61
2023-05-13T06:08:21.599Z,1020.61
2023-05-13T06:09:21.546Z,1020.60
2023-05-13T06:10:21.856Z,1020.59
2023-05-13T06:11:22.465Z,1020.59
2023-05-13T06:12:21.641Z,1020.59
2023-05-13T06:13:21.568Z,1020.60
2023-05-13T06:14:21.449Z,1020.62
2023-05-13T06:15:21.472Z,1020.59
2023-05-13T06:16:21.496Z,1020.57
2023-05-13T06:17:21.374Z,1020.60
2023-05-13T06:18:21.387Z,1020.59
2023-05-13T06:19:21.758Z,1020.61
2023-05-13T06:20:21.661Z,1020.60
2023-05-13T06:21:21.364Z,1020.60
2023-05-13T06:22:21.981Z,1020.57
2023-05-13T06:23:21.396Z,1020.59
2023-05-13T06:24:21.280Z,1020.56
2023-05-13T06:25:21.266Z,1020.53
2023-05-13T06:26:21.938Z,1020.54
2023-05-13T06:27:21.320Z,1020.56
2023-05-13T06:28:21.384Z,1020.56
2023-05-13T06:29:21.392Z,1020.52
2023-05-13T06:30:21.890Z,1020.56
2023-05-13T06:31:21.307Z,1020.55
2023-05-13T06:32:21.260Z,1020.50
2023-05-13T06:33:21.360Z,1020.53
2023-05-13T06:34:21.267Z,1020.56
2023-05-13T06:35:21.135Z,1020.55
2023-05-13T06:36:21.167Z,1020.54
2023-05-13T06:37:21.523Z,1020.50
2023-05-13T06:38:21.110Z,1020.58
2023-05-13T06:39:21.069Z,1020.51
2023-05-13T06:40:21.358Z,1020.51
2023-05-13T06:41:21.585Z,1020.47
2023-05-13T06:42:21.096Z,1020.49
2023-05-13T06:43:21.513Z,1020.47
2023-05-13T06:44:21.039Z,1020.50
2023-05-13T06:45:21.216Z,1020.50
2023-05-13T06:46:21.114Z,1020.47
2023-05-13T06:47:21.869Z,1020.56
2023-05-13T06:48:21.139Z,1020.53
2023-05-13T06:49:21.612Z,1020.57
2023-05-13T06:50:21.482Z,1020.57
2023-05-13T06:51:20.901Z,1020.56
2023-05-13T06:52:20.998Z,1020.61
2023-05-13T06:53:20.877Z,1020.60
2023-05-13T06:54:20.884Z,1020.55
2023-05-13T06:55:20.849Z,1020.56
2023-05-13T06:56:20.834Z,1020.56
2023-05-13T06:57:21.947Z,1020.57
2023-05-13T06:58:20.838Z,1020.54
2023-05-13T06:59:20.809Z,1020.54
2023-05-13T07:00:21.111Z,1020.54
2023-05-13T07:01:21.079Z,1020.54
2023-05-13T07:02:20.787Z,1020.61
2023-05-13T07:03:20.791Z,1020.57
2023-05-13T07:04:20.780Z,1020.60
2023-05-13T07:05:20.701Z,1020.55
2023-05-13T07:06:20.741Z,1020.55
2023-05-13T07:07:20.681Z,1020.56
2023-05-13T07:08:20.745Z,1020.58
2023-05-13T07:09:20.651Z,1020.57
2023-05-13T07:10:20.858Z,1020.62
2023-05-13T07:11:20.677Z,1020.59
2023-05-13T07:12:20.601Z,1020.55
2023-05-13T07:13:21.199Z,1020.55
2023-05-13T07:14:20.618Z,1020.55
2023-05-13T07:15:20.847Z,1020.61
2023-05-13T07:16:20.612Z,1020.60
2023-05-13T07:17:20.606Z,1020.57
2023-05-13T07:18:20.568Z,1020.58
2023-05-13T07:19:20.548Z,1020.61
2023-05-13T07:20:20.722Z,1020.60
2023-05-13T07:21:20.475Z,1020.58
2023-05-13T07:22:20.448Z,1020.58
2023-05-13T07:23:20.535Z,1020.59
2023-05-13T07:24:20.452Z,1020.60
2023-05-13T07:25:20.443Z,1020.61
2023-05-13T07:26:20.393Z,1020.62
2023-05-13T07:27:20.434Z,1020.54
2023-05-13T07:28:21.162Z,1020.54
2023-05-13T07:29:20.397Z,1020.49
2023-05-13T07:30:20.708Z,1020.56
2023-05-13T07:31:20.467Z,1020.53
2023-05-13T07:32:20.348Z,1020.51
2023-05-13T07:33:20.350Z,1020.55
2023-05-13T07:34:20.660Z,1020.53
2023-05-13T07:35:20.448Z,1020.55
2023-05-13T07:36:20.431Z,1020.51
2023-05-13T07:37:20.288Z,1020.51
2023-05-13T07:38:20.313Z,1020.49
2023-05-13T07:39:20.383Z,1020.48
2023-05-13T07:40:20.568Z,1020.44
2023-05-13T07:41:20.257Z,1020.48
2023-05-13T07:42:20.400Z,1020.42
2023-05-13T07:43:20.217Z,1020.43
2023-05-13T07:44:20.320Z,1020.41
2023-05-13T07:45:20.364Z,1020.43
2023-05-13T07:46:20.249Z,1020.43
2023-05-13T07:47:20.154Z,1020.38
2023-05-13T07:48:20.153Z,1020.40
2023-05-13T07:49:20.167Z,1020.46
2023-05-13T07:50:20.243Z,1020.41
2023-05-13T07:51:20.160Z,1020.37
2023-05-13T07:52:20.104Z,1020.40
2023-05-13T07:53:20.140Z,1020.41
2023-05-13T07:54:20.689Z,1020.43
2023-05-13T07:55:20.272Z,1020.42
2023-05-13T07:56:20.404Z,1020.40
2023-05-13T07:57:20.087Z,1020.43
2023-05-13T07:58:20.129Z,1020.43
2023-05-13T07:59:20.049Z,1020.42
2023-05-13T08:00:20.078Z,1020.40
2023-05-13T08:01:19.987Z,1020.39
2023-05-13T08:02:20.069Z,1020.40
2023-05-13T08:03:20.130Z,1020.40
2023-05-13T08:04:20.146Z,1020.34
2023-05-13T08:05:20.297Z,1020.36
2023-05-13T08:06:19.916Z,1020.37
2023-05-13T08:07:19.929Z,1020.38
2023-05-13T08:08:20.253Z,1020.41
2023-05-13T08:09:19.967Z,1020.44
2023-05-13T08:10:19.960Z,1020.38
2023-05-13T08:11:19.833Z,1020.37
2023-05-13T08:12:19.805Z,1020.40
2023-05-13T08:13:19.799Z,1020.36
2023-05-13T08:14:19.904Z,1020.38
2023-05-13T08:15:19.965Z,1020.35
2023-05-13T08:16:19.913Z,1020.33
2023-05-13T08:17:19.781Z,1020.34
2023-05-13T08:18:19.916Z,1020.39
2023-05-13T08:19:19.964Z,1020.41
2023-05-13T08:20:19.754Z,1020.36
2023-05-13T08:21:19.718Z,1020.35
2023-05-13T08:22:19.670Z,1020.38
2023-05-13T08:23:19.833Z,1020.36
2023-05-13T08:24:19.676Z,1020.36
2023-05-13T08:25:20.029Z,1020.39
2023-05-13T08:26:19.673Z,1020.36
2023-05-13T08:27:19.634Z,1020.41
2023-05-13T08:28:19.579Z,1020.39
2023-05-13T08:29:19.776Z,1020.35
2023-05-13T08:30:19.622Z,1020.39
2023-05-13T08:31:19.617Z,1020.40
2023-05-13T08:32:19.864Z,1020.40
2023-05-13T08:33:19.553Z,1020.37
2023-05-13T08:34:19.552Z,1020.40
2023-05-13T08:35:19.653Z,1020.44
2023-05-13T08:36:19.699Z,1020.38
2023-05-13T08:37:19.479Z,1020.41
2023-05-13T08:38:19.497Z,1020.42
2023-05-13T08:39:19.560Z,1020.40
2023-05-13T08:40:19.485Z,1020.46
2023-05-13T08:41:21.855Z,1020.45
2023-05-13T08:42:19.509Z,1020.44
2023-05-13T08:43:19.410Z,1020.44
2023-05-13T08:44:19.356Z,1020.41
2023-05-13T08:45:19.639Z,1020.46
2023-05-13T08:46:19.486Z,1020.39
2023-05-13T08:47:19.434Z,1020.45
2023-05-13T08:48:19.340Z,1020.39
2023-05-13T08:49:19.395Z,1020.36
2023-05-13T08:50:19.408Z,1020.40
2023-05-13T08:51:19.379Z,1020.38
2023-05-13T08:52:19.401Z,1020.38
2023-05-13T08:53:19.281Z,1020.38
2023-05-13T08:54:20.030Z,1020.40
2023-05-13T08:55:19.452Z,1020.40
2023-05-13T08:56:19.239Z,1020.41
2023-05-13T08:57:19.285Z,1020.42
2023-05-13T08:58:19.222Z,1020.38
2023-05-13T08:59:19.194Z,1020.40
2023-05-13T09:00:21.428Z,1020.40
2023-05-13T09:01:19.640Z,1020.43
2023-05-13T09:02:19.125Z,1020.42
2023-05-13T09:03:19.228Z,1020.40
2023-05-13T09:04:19.264Z,1020.40
2023-05-13T09:05:19.188Z,1020.45
2023-05-13T09:06:19.134Z,1020.44
2023-05-13T09:07:19.077Z,1020.46
2023-05-13T09:08:19.185Z,1020.40
2023-05-13T09:09:19.082Z,1020.43
2023-05-13T09:10:19.214Z,1020.42
2023-05-13T09:11:19.062Z,1020.43
2023-05-13T09:12:19.051Z,1020.36
2023-05-13T09:13:19.238Z,1020.41
2023-05-13T09:14:19.776Z,1020.40
2023-05-13T09:15:19.255Z,1020.45
2023-05-13T09:16:18.974Z,1020.37
2023-05-13T09:17:20.238Z,1020.38
2023-05-13T09:18:19.433Z,1020.41
2023-05-13T09:19:19.191Z,1020.33
2023-05-13T09:20:19.220Z,1020.35
2023-05-13T09:21:18.899Z,1020.41
2023-05-13T09:22:18.921Z,1020.43
2023-05-13T09:23:18.888Z,1020.43
2023-05-13T09:24:19.004Z,1020.44
2023-05-13T09:25:19.081Z,1020.41
2023-05-13T09:26:18.833Z,1020.40
2023-05-13T09:27:18.871Z,1020.43
2023-05-13T09:28:19.412Z,1020.43
2023-05-13T09:29:19.003Z,1020.37
2023-05-13T09:30:18.772Z,1020.42
2023-05-13T09:31:18.861Z,1020.37
2023-05-13T09:32:18.793Z,1020.31
2023-05-13T09:33:18.805Z,1020.34
2023-05-13T09:34:18.751Z,1020.33
2023-05-13T09:35:18.919Z,1020.34
2023-05-13T09:36:18.773Z,1020.31
2023-05-13T09:37:18.672Z,1020.37
2023-05-13T09:38:18.725Z,1020.37
2023-05-13T09:39:18.983Z,1020.35
2023-05-13T09:40:18.739Z,1020.36
2023-05-13T09:41:18.665Z,1020.36
2023-05-13T09:42:18.745Z,1020.35
2023-05-13T09:43:18.632Z,1020.35
2023-05-13T09:44:18.757Z,1020.38
2023-05-13T09:45:19.007Z,1020.32
2023-05-13T09:46:18.611Z,1020.36
2023-05-13T09:47:18.576Z,1020.36
2023-05-13T09:48:18.565Z,1020.34
2023-05-13T09:49:18.507Z,1020.37
2023-05-13T09:50:19.470Z,1020.39
2023-05-13T09:51:18.616Z,1020.39
2023-05-13T09:52:18.486Z,1020.32
2023-05-13T09:53:18.592Z,1020.28
2023-05-13T09:54:18.476Z,1020.33
2023-05-13T09:55:18.555Z,1020.33
2023-05-13T09:56:18.618Z,1020.40
2023-05-13T09:57:18.873Z,1020.36
2023-05-13T09:58:18.423Z,1020.35
2023-05-13T09:59:18.534Z,1020.32
2023-05-13T10:00:31.717Z,1020.26
2023-05-13T10:01:19.475Z,1020.30
2023-05-13T10:02:18.374Z,1020.34
2023-05-13T10:03:18.345Z,1020.30
2023-05-13T10:04:18.466Z,1020.31
2023-05-13T10:05:18.333Z,1020.31
2023-05-13T10:06:18.393Z,1020.32
2023-05-13T10:07:18.397Z,1020.32
2023-05-13T10:08:18.321Z,1020.29
2023-05-13T10:09:18.399Z,1020.34
2023-05-13T10:10:18.316Z,1020.28
2023-05-13T10:11:18.275Z,1020.31
2023-05-13T10:12:18.243Z,1020.34
2023-05-13T10:13:18.542Z,1020.26
2023-05-13T10:14:18.312Z,1020.36
2023-05-13T10:15:18.213Z,1020.35
2023-05-13T10:16:18.220Z,1020.31
2023-05-13T10:17:18.236Z,1020.31
2023-05-13T10:18:18.281Z,1020.25
2023-05-13T10:19:18.392Z,1020.31
2023-05-13T10:20:18.282Z,1020.30
2023-05-13T10:21:18.148Z,1020.28
2023-05-13T10:22:18.192Z,1020.29
2023-05-13T10:23:18.139Z,1020.26
2023-05-13T10:24:18.199Z,1020.23
2023-05-13T10:25:18.065Z,1020.25
2023-05-13T10:26:18.058Z,1020.25
2023-05-13T10:27:18.059Z,1020.23
2023-05-13T10:28:18.042Z,1020.23
2023-05-13T10:29:18.099Z,1020.23
2023-05-13T10:30:18.085Z,1020.22
2023-05-13T10:31:18.164Z,1020.12
2023-05-13T10:32:18.075Z,1020.13
2023-05-13T10:33:18.045Z,1020.14
2023-05-13T10:34:18.014Z,1020.16
2023-05-13T10:35:18.053Z,1020.17
2023-05-13T10:36:17.942Z,1020.10
2023-05-13T10:37:17.935Z,1020.12
2023-05-13T10:38:18.103Z,1020.08
2023-05-13T10:39:18.051Z,1020.06
2023-05-13T10:40:18.165Z,1020.08
2023-05-13T10:41:17.979Z,1020.09
2023-05-13T10:42:17.879Z,1020.08
2023-05-13T10:43:17.901Z,1020.05
2023-05-13T10:44:18.345Z,1020.10
2023-05-13T10:45:17.935Z,1020.08
2023-05-13T10:46:17.866Z,1020.06
2023-05-13T10:47:17.807Z,1020.08
2023-05-13T10:48:17.983Z,1020.09
2023-05-13T10:49:17.870Z,1020.03
2023-05-13T10:50:18.128Z,1020.06
2023-05-13T10:51:17.724Z,1020.07
2023-05-13T10:52:17.778Z,1020.08
2023-05-13T10:53:18.160Z,1020.09
2023-05-13T10:54:18.085Z,1020.09
2023-05-13T10:55:18.113Z,1020.07
2023-05-13T10:56:17.969Z,1020.08
2023-05-13T10:57:18.885Z,1020.06
2023-05-13T10:58:18.131Z,1020.05
2023-05-13T10:59:18.491Z,1020.02
2023-05-13T11:00:18.333Z,1020.07
2023-05-13T11:01:18.153Z,1020.02
2023-05-13T11:02:17.804Z,1020.01
2023-05-13T11:03:17.788Z,1019.90
2023-05-13T11:04:17.768Z,1020.01
2023-05-13T11:05:17.596Z,1020.00
2023-05-13T11:06:17.646Z,1020.01
2023-05-13T11:07:17.517Z,1020.02
2023-05-13T11:08:17.618Z,1020.04
2023-05-13T11:09:17.503Z,1020.02
2023-05-13T11:10:17.556Z,1019.95
2023-05-13T11:11:17.478Z,1019.96
2023-05-13T11:12:17.501Z,1019.99
2023-05-13T11:13:17.478Z,1019.99
2023-05-13T11:14:17.451Z,1019.94
2023-05-13T11:15:17.471Z,1020.01
2023-05-13T11:16:17.481Z,1019.97
2023-05-13T11:17:17.413Z,1019.95
2023-05-13T11:18:17.448Z,1019.94
2023-05-13T11:19:17.414Z,1019.91
2023-05-13T11:20:17.357Z,1019.88
2023-05-13T11:21:17.416Z,1019.88
2023-05-13T11:22:17.377Z,1019.88
2023-05-13T11:23:17.501Z,1019.86
2023-05-13T11:24:17.335Z,1019.88
2023-05-13T11:25:17.409Z,1019.86
2023-05-13T11:26:17.381Z,1019.95
2023-05-13T11:27:17.358Z,1019.84
2023-05-13T11:28:17.313Z,1019.88
2023-05-13T11:29:17.290Z,1019.82
2023-05-13T11:30:17.266Z,1019.86
2023-05-13T11:31:17.363Z,1019.88
2023-05-13T11:32:17.252Z,1019.80
2023-05-13T11:33:17.209Z,1019.84
2023-05-13T11:34:17.318Z,1019.82
2023-05-13T11:35:17.159Z,1019.82
2023-05-13T11:36:17.206Z,1019.77
2023-05-13T11:37:17.186Z,1019.76
2023-05-13T11:38:17.162Z,1019.74
2023-05-13T11:39:17.218Z,1019.81
2023-05-13T11:40:17.194Z,1019.78
2023-05-13T11:41:17.158Z,1019.79
2023-05-13T11:42:17.107Z,1019.77
2023-05-13T11:43:17.118Z,1019.78
2023-05-13T11:44:17.161Z,1019.85
2023-05-13T11:45:17.082Z,1019.82
2023-05-13T11:46:17.098Z,1019.70
2023-05-13T11:47:17.097Z,1019.66
2023-05-13T11:48:17.025Z,1019.73
2023-05-13T11:49:17.052Z,1019.74
2023-05-13T11:50:17.009Z,1019.69
2023-05-13T11:51:17.031Z,1019.67
2023-05-13T11:52:17.031Z,1019.68
2023-05-13T11:53:16.963Z,1019.67
2023-05-13T11:54:17.871Z,1019.70
2023-05-13T11:55:16.946Z,1019.64
2023-05-13T11:56:16.938Z,1019.61
2023-05-13T11:57:16.946Z,1019.57
2023-05-13T11:58:16.977Z,1019.60
2023-05-13T11:59:16.875Z,1019.58
2023-05-13T12:00:16.853Z,1019.57
2023-05-13T12:01:16.834Z,1019.61
2023-05-13T12:02:16.932Z,1019.52
2023-05-13T12:03:16.959Z,1019.54
2023-05-13T12:04:16.833Z,1019.64
2023-05-13T12:05:16.957Z,1019.63
2023-05-13T12:06:16.794Z,1019.63